createdAt,value
2019-04-10T00:01:12.146Z,126.22
2019-04-10T00:03:41.820Z,132.30
2019-04-10T00:06:08.768Z,130.80
2019-04-10T00:08:36.553Z,137.30
2019-04-10T00:11:04.649Z,135.60
2019-04-10T00:13:32.032Z,131.52
2019-04-10T00:15:59.180Z,135.63
2019-04-10T00:18:26.370Z,141.70
2019-04-10T00:20:53.598Z,132.60
2019-04-10T00:23:20.654Z,145.70
2019-04-10T00:25:48.716Z,136.52
2019-04-10T00:28:17.024Z,147.28
2019-04-10T00:30:45.068Z,135.00
2019-04-10T00:33:12.435Z,138.03
2019-04-10T00:35:39.738Z,136.57
2019-04-10T00:38:07.233Z,132.43
2019-04-10T00:40:35.240Z,141.10
2019-04-10T00:43:02.321Z,137.60
2019-04-10T00:45:29.615Z,136.20
2019-04-10T00:47:56.662Z,141.65
2019-04-10T00:50:23.963Z,144.57
2019-04-10T00:52:51.264Z,138.47
2019-04-10T00:55:19.635Z,124.60
2019-04-10T00:57:47.777Z,129.95
2019-04-10T01:00:15.033Z,131.85
2019-04-10T01:02:42.930Z,128.82
2019-04-10T01:05:11.071Z,124.80
2019-04-10T01:07:41.145Z,124.30
2019-04-10T01:10:08.178Z,130.25
2019-04-10T01:12:36.243Z,130.03
2019-04-10T01:15:04.609Z,125.22
2019-04-10T01:17:32.768Z,131.30
2019-04-10T01:20:00.643Z,125.25
2019-04-10T01:22:27.904Z,128.53
2019-04-10T01:24:54.963Z,126.38
2019-04-10T01:27:22.006Z,124.15
2019-04-10T01:29:49.607Z,124.55
2019-04-10T01:32:17.415Z,125.18
2019-04-10T01:34:45.492Z,130.85
2019-04-10T01:37:12.572Z,122.58
2019-04-10T01:39:40.252Z,122.78
2019-04-10T01:42:08.170Z,120.50
2019-04-10T01:44:36.246Z,118.77
2019-04-10T01:47:04.586Z,117.97
2019-04-10T01:49:31.942Z,123.47
2019-04-10T01:51:59.545Z,116.25
2019-04-10T01:54:27.563Z,122.20
2019-04-10T01:56:55.591Z,122.13
2019-04-10T01:59:23.629Z,121.25
2019-04-10T02:01:50.654Z,111.55
2019-04-10T02:04:18.904Z,114.62
2019-04-10T02:06:46.204Z,118.42
2019-04-10T02:09:13.504Z,115.05
2019-04-10T02:11:40.559Z,114.08
2019-04-10T02:14:07.904Z,112.68
2019-04-10T02:16:35.168Z,110.17
2019-04-10T02:19:02.462Z,115.60
2019-04-10T02:21:29.698Z,109.30
2019-04-10T02:24:01.524Z,111.40
2019-04-10T02:26:29.721Z,113.45
2019-04-10T02:28:57.615Z,108.35
2019-04-10T02:31:26.438Z,110.63
2019-04-10T02:33:53.840Z,114.15
2019-04-10T02:36:21.325Z,104.65
2019-04-10T02:38:59.060Z,112.90
2019-04-10T02:41:17.657Z,114.95
2019-04-10T02:43:45.340Z,112.37
2019-04-10T02:46:13.309Z,106.95
2019-04-10T02:48:41.535Z,117.00
2019-04-10T02:51:09.700Z,105.90
2019-04-10T02:53:37.470Z,109.00
2019-04-10T02:56:05.385Z,104.65
2019-04-10T02:58:34.314Z,109.03
2019-04-10T03:01:03.090Z,104.75
2019-04-10T03:03:30.555Z,106.25
2019-04-10T03:05:58.735Z,105.17
2019-04-10T03:08:40.988Z,110.35
2019-04-10T03:11:00.410Z,105.67
2019-04-10T03:13:23.979Z,109.97
2019-04-10T03:15:51.813Z,107.17
2019-04-10T03:18:19.201Z,107.55
2019-04-10T03:20:46.827Z,106.20
2019-04-10T03:23:14.124Z,108.80
2019-04-10T03:25:41.500Z,97.90
2019-04-10T03:28:09.092Z,115.25
2019-04-10T03:30:38.786Z,98.55
2019-04-10T03:33:10.853Z,105.50
2019-04-10T03:35:34.672Z,109.60
2019-04-10T03:38:01.917Z,99.58
2019-04-10T03:40:29.277Z,102.62
2019-04-10T03:42:57.231Z,105.67
2019-04-10T03:45:24.503Z,101.80
2019-04-10T03:47:51.583Z,105.63
2019-04-10T03:50:28.644Z,111.03
2019-04-10T03:52:56.310Z,106.75
2019-04-10T03:55:23.352Z,110.72
2019-04-10T03:57:51.872Z,105.58
2019-04-10T04:00:20.887Z,103.75
2019-04-10T04:02:48.331Z,100.33
2019-04-10T04:05:15.444Z,104.25
2019-04-10T04:07:43.173Z,102.15
2019-04-10T04:10:12.699Z,108.80
2019-04-10T04:12:40.260Z,101.38
2019-04-10T04:15:07.630Z,102.25
2019-04-10T04:17:34.683Z,107.17
2019-04-10T04:20:02.511Z,113.30
2019-04-10T04:22:30.623Z,105.97
2019-04-10T04:24:58.188Z,105.90
2019-04-10T04:27:25.635Z,101.92
2019-04-10T04:29:54.100Z,110.95
2019-04-10T04:32:21.767Z,106.43
2019-04-10T04:34:49.771Z,107.10
2019-04-10T04:37:16.886Z,109.57
2019-04-10T04:39:45.303Z,106.95
2019-04-10T04:42:12.859Z,109.00
2019-04-10T04:44:40.294Z,111.57
2019-04-10T04:47:07.677Z,112.72
2019-04-10T04:49:35.805Z,106.03
2019-04-10T04:52:03.080Z,119.20
2019-04-10T04:54:30.992Z,108.92
2019-04-10T04:56:58.148Z,103.92
2019-04-10T04:59:26.180Z,105.17
2019-04-10T05:01:53.426Z,100.80
2019-04-10T05:04:20.767Z,108.37
2019-04-10T05:06:50.103Z,105.15
2019-04-10T05:09:30.120Z,111.10
2019-04-10T05:11:46.873Z,106.35
2019-04-10T05:14:15.272Z,97.62
2019-04-10T05:16:43.670Z,106.55
2019-04-10T05:19:12.156Z,107.70
2019-04-10T05:21:39.650Z,108.22
2019-04-10T05:24:07.358Z,99.83
2019-04-10T05:26:34.733Z,96.87
2019-04-10T05:29:02.664Z,93.95
2019-04-10T05:31:29.711Z,100.97
2019-04-10T05:33:57.466Z,91.97
2019-04-10T05:36:25.652Z,100.33
2019-04-10T05:38:52.686Z,95.47
2019-04-10T05:41:19.749Z,97.02
2019-04-10T05:43:47.039Z,84.95
2019-04-10T05:46:14.468Z,91.32
2019-04-10T05:48:41.899Z,94.22
2019-04-10T05:51:09.494Z,90.92
2019-04-10T05:53:36.872Z,88.85
2019-04-10T05:56:03.916Z,94.32
2019-04-10T05:58:31.516Z,85.17
2019-04-10T06:00:58.848Z,89.80
2019-04-10T06:03:26.010Z,81.42
2019-04-10T06:05:54.204Z,87.82
2019-04-10T06:08:21.690Z,83.35
2019-04-10T06:10:49.792Z,84.77
2019-04-10T06:13:17.267Z,82.00
2019-04-10T06:15:45.440Z,84.97
2019-04-10T06:18:13.954Z,81.82
2019-04-10T06:20:41.751Z,79.47
2019-04-10T06:23:09.494Z,82.30
2019-04-10T06:25:38.877Z,79.60
2019-04-10T06:28:05.574Z,79.53
2019-04-10T06:30:34.128Z,79.87
2019-04-10T06:33:02.151Z,73.50
2019-04-10T06:35:30.213Z,70.65
2019-04-10T06:37:57.311Z,74.77
2019-04-10T06:40:27.184Z,69.72
2019-04-10T06:42:55.016Z,98.12
2019-04-10T06:45:22.114Z,66.45
2019-04-10T06:47:49.408Z,73.57
2019-04-10T06:50:16.920Z,65.52
2019-04-10T06:52:44.998Z,67.35
2019-04-10T06:55:13.357Z,60.88
2019-04-10T06:57:50.987Z,61.60
2019-04-10T07:00:12.710Z,64.35
2019-04-10T07:02:38.785Z,66.00
2019-04-10T07:05:08.773Z,61.48
2019-04-10T07:07:46.035Z,63.13
2019-04-10T07:10:04.030Z,64.00
2019-04-10T07:12:34.082Z,62.83
2019-04-10T07:15:02.376Z,68.40
2019-04-10T07:17:35.670Z,64.90
2019-04-10T07:20:01.975Z,64.60
2019-04-10T07:22:31.134Z,59.90
2019-04-10T07:24:58.443Z,61.13
2019-04-10T07:27:25.718Z,60.30
2019-04-10T07:29:57.305Z,60.52
2019-04-10T07:32:24.173Z,60.52
2019-04-10T07:34:51.008Z,63.17
2019-04-10T07:37:21.672Z,62.95
2019-04-10T07:39:47.374Z,57.40
2019-04-10T07:42:26.021Z,60.45
2019-04-10T07:44:43.711Z,58.58
2019-04-10T07:47:11.176Z,62.27
2019-04-10T07:49:39.656Z,60.33
2019-04-10T07:52:06.899Z,65.87
2019-04-10T07:54:35.061Z,62.08
2019-04-10T07:57:02.517Z,66.20
2019-04-10T07:59:31.278Z,59.45
2019-04-10T08:01:58.460Z,59.48
2019-04-10T08:04:26.852Z,61.28
2019-04-10T08:06:54.411Z,60.45
2019-04-10T08:09:21.680Z,65.92
2019-04-10T08:11:48.951Z,65.05
2019-04-10T08:14:16.893Z,57.38
2019-04-10T08:16:43.965Z,59.50
2019-04-10T08:19:11.018Z,59.15
2019-04-10T08:21:38.321Z,54.53
2019-04-10T08:24:05.366Z,59.88
2019-04-10T08:26:32.571Z,59.73
2019-04-10T08:28:59.975Z,62.70
2019-04-10T08:31:27.015Z,63.42
2019-04-10T08:33:54.744Z,66.37
2019-04-10T08:36:21.804Z,60.08
2019-04-10T08:38:49.009Z,61.70
2019-04-10T08:41:17.163Z,65.52
2019-04-10T08:43:44.269Z,61.48
2019-04-10T08:46:12.808Z,59.08
2019-04-10T08:48:39.985Z,59.58
2019-04-10T08:51:07.261Z,54.63
2019-04-10T08:53:34.387Z,61.02
2019-04-10T08:56:02.390Z,58.80
2019-04-10T08:58:30.661Z,56.68
2019-04-10T09:00:58.659Z,57.48
2019-04-10T09:03:26.749Z,54.67
2019-04-10T09:05:53.848Z,64.27
2019-04-10T09:08:21.241Z,60.30
2019-04-10T09:10:48.595Z,60.80
2019-04-10T09:13:16.673Z,55.98
2019-04-10T09:15:44.142Z,58.35
2019-04-10T09:18:12.754Z,58.00
2019-04-10T09:20:40.566Z,59.08
2019-04-10T09:23:18.726Z,55.48
2019-04-10T09:25:37.477Z,56.55
2019-04-10T09:28:04.894Z,55.63
2019-04-10T09:30:33.833Z,59.13
2019-04-10T09:33:05.550Z,60.38
2019-04-10T09:35:30.785Z,55.73
2019-04-10T09:37:58.691Z,57.17
2019-04-10T09:40:26.091Z,61.68
2019-04-10T09:42:53.134Z,56.83
2019-04-10T09:45:20.191Z,57.40
2019-04-10T09:47:48.084Z,51.53
2019-04-10T09:50:15.276Z,58.45
2019-04-10T09:52:42.271Z,57.05
2019-04-10T09:55:09.552Z,57.33
2019-04-10T09:57:36.797Z,58.48
2019-04-10T10:00:05.226Z,52.03
2019-04-10T10:02:34.030Z,49.77
2019-04-10T10:05:02.247Z,51.75
2019-04-10T10:07:29.461Z,46.30
2019-04-10T10:10:00.437Z,53.55
2019-04-10T10:12:25.785Z,57.83
2019-04-10T10:14:53.876Z,51.90
2019-04-10T10:17:20.859Z,50.98
2019-04-10T10:19:48.179Z,54.55
2019-04-10T10:22:15.519Z,47.78
2019-04-10T10:24:42.868Z,54.23
2019-04-10T10:27:09.906Z,50.33
2019-04-10T10:29:37.647Z,47.50
2019-04-10T10:32:04.939Z,55.78
2019-04-10T10:34:31.987Z,46.08
2019-04-10T10:37:00.023Z,50.78
2019-04-10T10:39:28.570Z,49.23
2019-04-10T10:41:56.470Z,46.83
2019-04-10T10:44:23.820Z,46.30
2019-04-10T10:46:51.580Z,46.85
2019-04-10T10:49:20.156Z,47.95
2019-04-10T10:51:47.569Z,44.67
2019-04-10T10:54:14.673Z,45.30
2019-04-10T10:56:42.591Z,47.30
2019-04-10T10:59:09.714Z,49.48
2019-04-10T11:01:38.029Z,44.00
2019-04-10T11:04:05.110Z,47.27
2019-04-10T11:06:33.190Z,46.05
2019-04-10T11:09:00.189Z,45.78
2019-04-10T11:11:28.234Z,47.05
2019-04-10T11:13:55.262Z,47.23
2019-04-10T11:16:23.219Z,46.15
2019-04-10T11:18:50.917Z,47.43
2019-04-10T11:21:18.266Z,45.95
2019-04-10T11:23:45.274Z,47.88
2019-04-10T11:26:18.229Z,51.55
2019-04-10T11:28:41.906Z,45.20
2019-04-10T11:31:09.336Z,48.65
2019-04-10T11:33:37.298Z,48.17
2019-04-10T11:36:06.463Z,47.13
2019-04-10T11:38:35.762Z,50.80
2019-04-10T11:41:05.958Z,50.17
2019-04-10T11:43:33.621Z,47.33
2019-04-10T11:46:02.659Z,48.90
2019-04-10T11:48:31.174Z,48.05
2019-04-10T11:51:00.608Z,47.62
2019-04-10T11:53:27.657Z,48.25
2019-04-10T11:55:57.000Z,46.33
2019-04-10T11:58:25.262Z,48.87
2019-04-10T12:03:22.610Z,46.37
2019-04-10T12:05:51.838Z,47.27
2019-04-10T12:08:44.743Z,47.27
2019-04-10T12:13:18.376Z,50.48
2019-04-10T12:15:45.814Z,44.42
2019-04-10T12:18:14.115Z,44.33
2019-04-10T12:20:41.536Z,41.63
2019-04-10T12:23:08.892Z,47.95
2019-04-10T12:25:36.630Z,42.85
2019-04-10T12:28:04.028Z,41.48
2019-04-10T12:30:31.179Z,40.85
2019-04-10T12:32:58.206Z,44.42
2019-04-10T12:35:25.578Z,41.73
2019-04-10T12:38:01.461Z,38.75
2019-04-10T12:40:21.706Z,39.27
2019-04-10T12:42:48.995Z,38.10
2019-04-10T12:45:16.316Z,39.63
2019-04-10T12:47:43.425Z,36.05
2019-04-10T12:50:10.534Z,37.55
2019-04-10T12:52:38.703Z,37.95
2019-04-10T12:55:05.987Z,35.03
2019-04-10T12:57:33.394Z,36.23
2019-04-10T13:00:04.050Z,34.08
2019-04-10T13:02:30.308Z,34.45
2019-04-10T13:04:57.384Z,39.95
2019-04-10T13:07:24.709Z,31.00
2019-04-10T13:09:52.032Z,35.60
2019-04-10T13:12:19.088Z,34.88
2019-04-10T13:14:46.515Z,33.20
2019-04-10T13:17:14.368Z,33.23
2019-04-10T13:19:42.858Z,32.17
2019-04-10T13:22:11.678Z,33.35
2019-04-10T13:24:38.731Z,33.80
2019-04-10T13:27:06.246Z,30.70
2019-04-10T13:29:33.266Z,32.63
2019-04-10T13:32:01.378Z,32.25
2019-04-10T13:34:29.087Z,34.55
2019-04-10T13:36:56.735Z,34.25
2019-04-10T13:39:24.620Z,33.13
2019-04-10T13:41:52.566Z,33.00
2019-04-10T13:44:21.135Z,36.93
2019-04-10T13:46:49.065Z,37.23
2019-04-10T13:49:16.116Z,35.85
2019-04-10T13:51:43.601Z,37.40
2019-04-10T13:54:14.693Z,32.65
2019-04-10T13:56:41.318Z,36.77
2019-04-10T13:59:08.906Z,36.05
2019-04-10T14:01:36.324Z,38.63
2019-04-10T14:04:05.018Z,37.67
2019-04-10T14:06:33.931Z,40.67
2019-04-10T14:09:17.845Z,37.85
2019-04-10T14:13:58.914Z,36.73
2019-04-10T14:16:26.211Z,36.48
2019-04-10T14:18:53.524Z,35.50
2019-04-10T14:21:20.880Z,34.73
2019-04-10T14:23:47.926Z,34.88
2019-04-10T14:26:16.159Z,34.27
2019-04-10T14:28:43.666Z,31.25
2019-04-10T14:31:11.708Z,38.13
2019-04-10T14:33:39.902Z,33.23
2019-04-10T14:36:07.602Z,31.48
2019-04-10T14:38:35.048Z,32.90
2019-04-10T14:41:03.222Z,35.03
2019-04-10T14:43:30.586Z,32.42
2019-04-10T14:45:57.744Z,35.73
2019-04-10T14:48:25.062Z,34.73
2019-04-10T14:50:52.420Z,35.58
2019-04-10T14:53:19.482Z,34.75
2019-04-10T14:58:49.008Z,32.80
2019-04-10T15:01:16.045Z,33.80
2019-04-10T15:03:44.477Z,37.85
2019-04-10T15:06:11.980Z,37.38
2019-04-10T15:08:39.702Z,35.17
2019-04-10T15:11:07.119Z,39.15
2019-04-10T15:13:34.436Z,32.95
2019-04-10T15:16:02.930Z,35.95
2019-04-10T15:18:30.908Z,38.80
2019-04-10T15:20:58.573Z,41.68
2019-04-10T15:23:25.733Z,41.42
2019-04-10T15:25:53.092Z,39.20
2019-04-10T15:28:20.141Z,43.23
2019-04-10T15:30:47.606Z,38.20
2019-04-10T15:33:14.635Z,37.23
2019-04-10T15:35:42.646Z,40.55
2019-04-10T15:38:10.058Z,41.40
2019-04-10T15:40:38.503Z,38.10
2019-04-10T15:43:06.096Z,42.35
2019-04-10T15:45:33.145Z,44.30
2019-04-10T15:48:01.571Z,39.58
2019-04-10T15:50:29.154Z,42.45
2019-04-10T15:52:57.864Z,45.67
2019-04-10T15:55:25.836Z,42.70
2019-04-10T15:57:57.814Z,46.95
2019-04-10T16:00:23.289Z,43.58
2019-04-10T16:02:51.031Z,43.20
2019-04-10T16:05:19.523Z,45.35
2019-04-10T16:07:47.003Z,42.23
2019-04-10T16:10:14.820Z,43.80
2019-04-10T16:12:42.343Z,42.25
2019-04-10T16:15:09.699Z,40.17
2019-04-10T16:17:37.654Z,42.90
2019-04-10T16:20:05.023Z,44.65
2019-04-10T16:22:33.168Z,41.80
2019-04-10T16:25:01.156Z,45.00
2019-04-10T16:27:28.731Z,44.15
2019-04-10T16:29:56.598Z,45.03
2019-04-10T16:32:24.440Z,39.55
2019-04-10T16:34:51.896Z,44.23
2019-04-10T16:37:18.939Z,40.10
2019-04-10T16:39:57.603Z,42.33
2019-04-10T16:42:15.061Z,39.55
2019-04-10T16:44:43.861Z,40.33
2019-04-10T16:47:12.021Z,42.08
2019-04-10T16:49:39.293Z,43.25
2019-04-10T16:52:07.119Z,39.35
2019-04-10T16:54:35.377Z,42.08
2019-04-10T16:57:02.845Z,37.60
2019-04-10T16:59:30.179Z,38.95
2019-04-10T17:01:57.347Z,35.95
2019-04-10T17:04:24.360Z,40.25
2019-04-10T17:06:52.569Z,40.98
2019-04-10T17:09:20.710Z,39.63
2019-04-10T17:11:49.284Z,37.78
2019-04-10T17:14:17.471Z,37.90
2019-04-10T17:16:46.049Z,36.75
2019-04-10T17:19:13.919Z,38.30
2019-04-10T17:21:42.550Z,43.05
2019-04-10T17:24:09.671Z,38.63
2019-04-10T17:26:37.132Z,37.17
2019-04-10T17:29:05.063Z,37.60
2019-04-10T17:31:32.942Z,44.23
2019-04-10T17:34:00.624Z,40.73
2019-04-10T17:36:29.414Z,36.83
2019-04-10T17:38:56.513Z,36.83
2019-04-10T17:41:23.873Z,41.02
2019-04-10T17:43:51.652Z,41.95
2019-04-10T17:46:19.391Z,39.00
2019-04-10T17:48:46.807Z,40.85
2019-04-10T17:51:14.149Z,33.55
2019-04-10T17:53:42.028Z,38.35
2019-04-10T17:56:09.234Z,43.28
2019-04-10T17:58:36.266Z,34.92
2019-04-10T18:01:03.957Z,33.30
2019-04-10T18:03:42.969Z,33.25
2019-04-10T18:06:01.352Z,34.50
2019-04-10T18:08:30.140Z,32.33
2019-04-10T18:10:58.713Z,32.70
2019-04-10T18:13:26.727Z,33.88
2019-04-10T18:15:55.402Z,30.82
2019-04-10T18:18:23.883Z,31.73
2019-04-10T18:20:52.489Z,39.88
2019-04-10T18:23:19.701Z,32.88
2019-04-10T18:25:46.965Z,32.42
2019-04-10T18:28:14.250Z,32.95
2019-04-10T18:30:41.314Z,35.55
2019-04-10T18:33:08.341Z,39.90
2019-04-10T18:35:35.390Z,33.10
2019-04-10T18:38:03.481Z,29.72
2019-04-10T18:40:31.930Z,31.90
2019-04-10T18:43:00.289Z,35.60
2019-04-10T18:45:28.028Z,29.35
2019-04-10T18:47:56.467Z,31.73
2019-04-10T18:50:24.483Z,29.72
2019-04-10T18:52:51.905Z,35.70
2019-04-10T18:55:20.389Z,32.05
2019-04-10T18:57:47.823Z,37.70
2019-04-10T19:00:15.758Z,29.87
2019-04-10T19:02:45.228Z,34.80
2019-04-10T19:05:13.889Z,28.75
2019-04-10T19:07:42.703Z,30.77
2019-04-10T19:10:11.486Z,31.90
2019-04-10T19:12:39.453Z,29.37
2019-04-10T19:15:06.803Z,28.05
2019-04-10T19:17:35.041Z,26.90
2019-04-10T19:20:02.514Z,28.75
2019-04-10T19:22:30.694Z,28.40
2019-04-10T19:24:58.346Z,27.22
2019-04-10T19:27:26.722Z,25.72
2019-04-10T19:29:54.970Z,29.18
2019-04-10T19:32:22.669Z,25.75
2019-04-10T19:34:50.113Z,30.52
2019-04-10T19:37:18.552Z,27.52
2019-04-10T19:39:46.873Z,24.72
2019-04-10T19:42:15.342Z,25.55
2019-04-10T19:44:43.506Z,27.20
2019-04-10T19:47:10.693Z,24.67
2019-04-10T19:49:38.786Z,32.08
2019-04-10T19:52:08.515Z,25.50
2019-04-10T19:54:35.985Z,25.25
2019-04-10T19:57:04.721Z,24.40
2019-04-10T19:59:32.058Z,26.02
2019-04-10T20:02:00.290Z,23.98
2019-04-10T20:04:28.396Z,23.57
2019-04-10T20:06:56.466Z,27.13
2019-04-10T20:09:24.286Z,24.12
2019-04-10T20:11:54.284Z,21.80
2019-04-10T20:14:20.338Z,25.15
2019-04-10T20:16:47.667Z,23.12
2019-04-10T20:19:15.214Z,20.30
2019-04-10T20:21:42.226Z,23.45
2019-04-10T20:24:10.413Z,23.27
2019-04-10T20:26:37.701Z,23.15
2019-04-10T20:29:04.985Z,24.37
2019-04-10T20:31:33.103Z,22.35
2019-04-10T20:34:00.142Z,21.02
2019-04-10T20:36:27.505Z,22.58
2019-04-10T20:38:54.862Z,21.12
2019-04-10T20:41:23.144Z,24.52
2019-04-10T20:43:51.190Z,22.07
2019-04-10T20:46:18.208Z,23.12
2019-04-10T20:48:46.699Z,20.37
2019-04-10T20:51:14.486Z,21.73
2019-04-10T20:53:42.239Z,25.80
2019-04-10T20:56:10.370Z,24.55
2019-04-10T20:58:38.200Z,26.57
2019-04-10T21:01:06.045Z,22.65
2019-04-10T21:03:33.838Z,23.02
2019-04-10T21:06:01.192Z,25.12
2019-04-10T21:08:29.684Z,22.70
2019-04-10T21:10:57.149Z,22.40
2019-04-10T21:13:25.320Z,21.48
2019-04-10T21:15:53.047Z,20.23
2019-04-10T21:18:21.195Z,20.68
2019-04-10T21:20:49.325Z,21.80
2019-04-10T21:23:17.168Z,19.60
2019-04-10T21:25:45.535Z,21.48
2019-04-10T21:28:12.676Z,22.62
2019-04-10T21:30:40.321Z,22.55
2019-04-10T21:33:07.951Z,24.25
2019-04-10T21:35:35.127Z,24.50
2019-04-10T21:38:02.636Z,20.23
2019-04-10T21:40:30.892Z,23.30
2019-04-10T21:42:58.197Z,20.55
2019-04-10T21:45:26.391Z,19.45
2019-04-10T21:47:54.375Z,21.05
2019-04-10T21:50:21.779Z,19.82
2019-04-10T21:52:49.754Z,24.00
2019-04-10T21:55:17.127Z,22.15
2019-04-10T21:57:44.754Z,22.25
2019-04-10T22:00:14.113Z,19.67
2019-04-10T22:02:45.006Z,19.87
2019-04-10T22:05:12.399Z,18.77
2019-04-10T22:07:40.528Z,19.57
2019-04-10T22:10:09.906Z,19.57
2019-04-10T22:12:43.876Z,20.23
2019-04-10T22:15:06.535Z,24.10
2019-04-10T22:17:34.217Z,22.55
2019-04-10T22:20:01.370Z,23.52
2019-04-10T22:22:28.990Z,16.60
2019-04-10T22:24:56.946Z,19.17
2019-04-10T22:27:25.489Z,18.32
2019-04-10T22:29:52.875Z,18.42
2019-04-10T22:32:19.912Z,21.62
2019-04-10T22:34:47.354Z,20.72
2019-04-10T22:37:16.603Z,20.57
2019-04-10T22:39:43.761Z,18.62
2019-04-10T22:42:11.101Z,17.45
2019-04-10T22:44:42.560Z,18.35
2019-04-10T22:47:07.143Z,19.17
2019-04-10T22:49:34.971Z,17.98
2019-04-10T22:52:02.641Z,19.17
2019-04-10T22:54:30.425Z,20.70
2019-04-10T22:56:58.513Z,20.82
2019-04-10T22:59:26.268Z,17.05
2019-04-10T23:02:03.390Z,19.37
2019-04-10T23:04:22.814Z,18.62
2019-04-10T23:06:50.297Z,19.52
2019-04-10T23:09:17.622Z,17.80
2019-04-10T23:11:46.213Z,18.00
2019-04-10T23:14:14.366Z,18.60
2019-04-10T23:16:41.483Z,16.45
2019-04-10T23:19:08.524Z,14.68
2019-04-10T23:21:36.581Z,17.62
2019-04-10T23:24:03.671Z,18.67
2019-04-10T23:26:31.214Z,14.87
2019-04-10T23:28:58.188Z,17.37
2019-04-10T23:31:25.750Z,15.48
2019-04-10T23:33:52.855Z,20.92
2019-04-10T23:36:20.212Z,20.35
2019-04-10T23:38:47.992Z,16.73
2019-04-10T23:41:15.657Z,17.37
2019-04-10T23:43:43.944Z,17.25
2019-04-10T23:46:11.772Z,19.20
2019-04-10T23:48:39.771Z,17.82
2019-04-10T23:51:07.116Z,24.10
2019-04-10T23:53:34.142Z,16.75
2019-04-10T23:56:02.135Z,18.20
2019-04-10T23:58:29.773Z,19.40
